Terminal Aerodrome Forecast
Issued by NWS

Home | Current Version | Previous Version | Text Only | Print | Product List | Glossary On
Versions: 1 2 3 4 5 6 7 8 9 10 11 12 13 14 15 16 17 18 19
000
FTUS46 KPDT 272300
TAFBDN
TAF
KBDN 272321Z 2800/2824 22020G26KT P6SM -SHRA SCT030 BKN080
     FM280300 22012KT P6SM -RA OVC050
     FM281200 21015G22KT P6SM -RA OVC050
     FM281800 21020G30KT P6SM -RA OVC060=

USA.gov is the U.S. government's official web portal to all federal, state and local government web resources and services.